createdAt,value
2023-03-21T00:00:06.278Z,10.14
2023-03-21T00:00:16.168Z,10.14
2023-03-21T00:00:26.301Z,10.16
2023-03-21T00:00:36.338Z,10.17
2023-03-21T00:00:46.405Z,10.16
2023-03-21T00:00:56.524Z,10.17
2023-03-21T00:01:06.581Z,10.14
2023-03-21T00:01:16.619Z,10.16
2023-03-21T00:01:26.708Z,10.16
2023-03-21T00:01:36.746Z,10.14
2023-03-21T00:01:46.838Z,10.17
2023-03-21T00:01:56.883Z,10.18
2023-03-21T00:02:06.975Z,10.17
2023-03-21T00:02:17.081Z,10.16
2023-03-21T00:02:27.197Z,10.17
2023-03-21T00:02:37.286Z,10.18
2023-03-21T00:02:47.412Z,10.18
2023-03-21T00:02:57.525Z,10.17
2023-03-21T00:03:07.508Z,10.17
2023-03-21T00:03:17.625Z,10.17
2023-03-21T00:03:27.736Z,10.17
2023-03-21T00:03:37.944Z,10.17
2023-03-21T00:03:47.864Z,10.18
2023-03-21T00:03:57.916Z,10.18
2023-03-21T00:04:08.112Z,10.18
2023-03-21T00:04:18.125Z,10.17
2023-03-21T00:04:33.188Z,10.20
2023-03-21T00:04:50.823Z,10.17
2023-03-21T00:04:53.519Z,10.17
2023-03-21T00:05:09.328Z,10.18
2023-03-21T00:05:15.761Z,10.18
2023-03-21T00:05:22.114Z,10.20
2023-03-21T00:05:32.050Z,10.20
2023-03-21T00:05:42.387Z,10.22
2023-03-21T00:05:52.300Z,10.18
2023-03-21T00:06:02.207Z,10.18
2023-03-21T00:06:12.246Z,10.20
2023-03-21T00:06:22.328Z,10.24
2023-03-21T00:06:32.412Z,10.20
2023-03-21T00:06:42.479Z,10.22
2023-03-21T00:06:52.611Z,10.22
2023-03-21T00:07:02.698Z,10.22
2023-03-21T00:07:12.850Z,10.22
2023-03-21T00:07:22.898Z,10.22
2023-03-21T00:07:32.975Z,10.24
2023-03-21T00:07:43.032Z,10.20
2023-03-21T00:07:53.103Z,10.22
2023-03-21T00:08:03.181Z,10.22
2023-03-21T00:08:13.219Z,10.24
2023-03-21T00:08:23.300Z,10.22
2023-03-21T00:08:33.360Z,10.22
2023-03-21T00:08:43.417Z,10.22
2023-03-21T00:08:53.468Z,10.24
2023-03-21T00:09:03.580Z,10.20
2023-03-21T00:09:13.634Z,10.22
2023-03-21T00:09:23.698Z,10.22
2023-03-21T00:09:33.756Z,10.24
2023-03-21T00:09:43.851Z,10.24
2023-03-21T00:09:57.015Z,10.24
2023-03-21T00:10:15.107Z,10.22
2023-03-21T00:10:23.944Z,10.20
2023-03-21T00:10:39.046Z,10.22
2023-03-21T00:10:48.768Z,10.20
2023-03-21T00:10:58.856Z,10.22
2023-03-21T00:11:09.021Z,10.24
2023-03-21T00:11:19.110Z,10.25
2023-03-21T00:11:29.213Z,10.24
2023-03-21T00:11:39.308Z,10.24
2023-03-21T00:11:49.394Z,10.25
2023-03-21T00:11:59.462Z,10.24
2023-03-21T00:12:09.557Z,10.26
2023-03-21T00:12:19.685Z,10.25
2023-03-21T00:12:29.818Z,10.25
2023-03-21T00:12:39.865Z,10.26
2023-03-21T00:12:49.937Z,10.25
2023-03-21T00:12:59.989Z,10.26
2023-03-21T00:13:10.124Z,10.28
2023-03-21T00:13:20.169Z,10.28
2023-03-21T00:13:30.249Z,10.26
2023-03-21T00:13:40.253Z,10.28
2023-03-21T00:13:50.257Z,10.28
2023-03-21T00:14:00.314Z,10.28
2023-03-21T00:14:10.429Z,10.25
2023-03-21T00:14:20.660Z,10.26
2023-03-21T00:14:30.691Z,10.26
2023-03-21T00:14:40.851Z,10.25
2023-03-21T00:14:50.976Z,10.26
2023-03-21T00:15:00.964Z,10.28
2023-03-21T00:15:11.124Z,10.28
2023-03-21T00:15:24.914Z,10.28
2023-03-21T00:15:42.421Z,10.26
2023-03-21T00:15:54.123Z,10.26
2023-03-21T00:16:09.715Z,10.28
2023-03-21T00:16:12.935Z,10.28
2023-03-21T00:16:21.188Z,10.26
2023-03-21T00:16:29.995Z,10.26
2023-03-21T00:16:40.513Z,10.28
2023-03-21T00:16:46.955Z,10.28
2023-03-21T00:16:57.026Z,10.28
2023-03-21T00:17:07.026Z,10.28
2023-03-21T00:17:17.048Z,10.29
2023-03-21T00:17:27.096Z,10.28
2023-03-21T00:17:37.177Z,10.28
2023-03-21T00:17:47.267Z,10.28
2023-03-21T00:17:57.360Z,10.29
2023-03-21T00:18:07.416Z,10.26
2023-03-21T00:18:17.507Z,10.28
2023-03-21T00:18:27.556Z,10.28
2023-03-21T00:18:37.638Z,10.29
2023-03-21T00:18:47.715Z,10.28
2023-03-21T00:18:57.830Z,10.29
2023-03-21T00:19:07.885Z,10.28
2023-03-21T00:19:17.977Z,10.26
2023-03-21T00:19:28.028Z,10.29
2023-03-21T00:19:38.107Z,10.29
2023-03-21T00:19:49.896Z,10.29
2023-03-21T00:19:58.328Z,10.29
2023-03-21T00:20:08.441Z,10.29
2023-03-21T00:20:18.496Z,10.29
2023-03-21T00:20:28.626Z,10.29
2023-03-21T00:20:38.722Z,10.29
2023-03-21T00:20:48.785Z,10.29
2023-03-21T00:21:25.673Z,10.28
2023-03-21T00:21:39.183Z,10.29
2023-03-21T00:21:48.783Z,10.29
2023-03-21T00:21:52.302Z,10.28
2023-03-21T00:22:03.262Z,10.29
2023-03-21T00:22:07.580Z,10.28
2023-03-21T00:22:08.065Z,10.28
2023-03-21T00:22:14.684Z,10.28
2023-03-21T00:22:24.736Z,10.31
2023-03-21T00:22:34.848Z,10.31
2023-03-21T00:22:44.885Z,10.29
2023-03-21T00:22:54.965Z,10.31
2023-03-21T00:23:05.032Z,10.32
2023-03-21T00:23:15.087Z,10.29
2023-03-21T00:23:25.156Z,10.29
2023-03-21T00:23:35.233Z,10.31
2023-03-21T00:23:45.327Z,10.32
2023-03-21T00:23:55.414Z,10.29
2023-03-21T00:24:05.525Z,10.29
2023-03-21T00:24:15.624Z,10.32
2023-03-21T00:24:25.689Z,10.34
2023-03-21T00:24:35.758Z,10.34
2023-03-21T00:24:45.808Z,10.31
2023-03-21T00:24:55.897Z,10.31
2023-03-21T00:25:05.970Z,10.31
2023-03-21T00:25:16.075Z,10.31
2023-03-21T00:25:26.136Z,10.29
2023-03-21T00:25:36.496Z,10.31
2023-03-21T00:25:46.418Z,10.31
2023-03-21T00:25:56.468Z,10.32
2023-03-21T00:26:06.575Z,10.34
2023-03-21T00:26:16.629Z,10.34
2023-03-21T00:26:26.645Z,10.32
2023-03-21T00:26:36.706Z,10.31
2023-03-21T00:26:46.776Z,10.32
2023-03-21T00:27:03.499Z,10.31
2023-03-21T00:27:39.461Z,10.31
2023-03-21T00:27:50.114Z,10.29
2023-03-21T00:27:56.822Z,10.31
2023-03-21T00:28:07.222Z,10.32
2023-03-21T00:28:08.382Z,10.29
2023-03-21T00:28:13.558Z,10.31
2023-03-21T00:28:23.664Z,10.32
2023-03-21T00:28:33.702Z,10.32
2023-03-21T00:28:43.839Z,10.34
2023-03-21T00:28:53.911Z,10.32
2023-03-21T00:29:04.027Z,10.31
2023-03-21T00:29:14.074Z,10.32
2023-03-21T00:29:24.152Z,10.34
2023-03-21T00:29:34.194Z,10.32
2023-03-21T00:29:44.277Z,10.34
2023-03-21T00:29:54.390Z,10.32
2023-03-21T00:30:04.489Z,10.34
2023-03-21T00:30:14.554Z,10.35
2023-03-21T00:30:24.624Z,10.32
2023-03-21T00:30:34.701Z,10.32
2023-03-21T00:30:44.813Z,10.34
2023-03-21T00:30:54.888Z,10.32
2023-03-21T00:31:04.947Z,10.34
2023-03-21T00:31:15.107Z,10.34
2023-03-21T00:31:25.003Z,10.34
2023-03-21T00:31:35.084Z,10.34
2023-03-21T00:31:45.135Z,10.34
2023-03-21T00:31:55.240Z,10.35
2023-03-21T00:32:05.295Z,10.34
2023-03-21T00:32:15.417Z,10.32
2023-03-21T00:32:25.490Z,10.34
2023-03-21T00:32:39.868Z,10.34
2023-03-21T00:32:55.523Z,10.32
2023-03-21T00:32:58.484Z,10.31
2023-03-21T00:33:21.781Z,10.31
2023-03-21T00:33:29.533Z,10.32
2023-03-21T00:33:39.621Z,10.34
2023-03-21T00:33:49.714Z,10.35
2023-03-21T00:33:59.814Z,10.34
2023-03-21T00:34:26.931Z,10.34
2023-03-21T00:34:42.734Z,10.32
2023-03-21T00:34:43.047Z,10.29
2023-03-21T00:35:21.567Z,10.32
2023-03-21T00:35:34.506Z,10.31
2023-03-21T00:35:51.615Z,10.32
2023-03-21T00:35:57.399Z,10.32
2023-03-21T00:36:01.776Z,10.31
2023-03-21T00:36:02.535Z,10.31
2023-03-21T00:36:09.779Z,10.32
2023-03-21T00:36:12.483Z,10.32
2023-03-21T00:36:19.604Z,10.34
2023-03-21T00:36:29.688Z,10.32
2023-03-21T00:36:39.806Z,10.32
2023-03-21T00:36:49.911Z,10.32
2023-03-21T00:36:59.872Z,10.32
2023-03-21T00:37:09.932Z,10.34
2023-03-21T00:37:20.010Z,10.31
2023-03-21T00:37:30.111Z,10.31
2023-03-21T00:37:40.204Z,10.32
2023-03-21T00:37:50.272Z,10.34
2023-03-21T00:38:00.404Z,10.34
2023-03-21T00:38:10.540Z,10.34
2023-03-21T00:38:20.634Z,10.34
2023-03-21T00:38:30.697Z,10.34
2023-03-21T00:38:40.774Z,10.32
2023-03-21T00:38:50.848Z,10.32
2023-03-21T00:39:01.047Z,10.32
2023-03-21T00:39:11.015Z,10.32
2023-03-21T00:39:21.091Z,10.32
2023-03-21T00:39:31.183Z,10.32
2023-03-21T00:39:41.280Z,10.32
2023-03-21T00:39:51.266Z,10.31
2023-03-21T00:40:01.672Z,10.34
2023-03-21T00:40:23.159Z,10.32
2023-03-21T00:40:32.818Z,10.31
2023-03-21T00:40:40.485Z,10.29
2023-03-21T00:40:49.165Z,10.31
2023-03-21T00:40:56.870Z,10.31
2023-03-21T00:41:18.918Z,10.31
2023-03-21T00:41:26.348Z,10.29
2023-03-21T00:41:41.392Z,10.28
2023-03-21T00:41:42.881Z,10.31
2023-03-21T00:41:49.301Z,10.29
2023-03-21T00:41:59.383Z,10.32
2023-03-21T00:42:09.443Z,10.34
2023-03-21T00:42:19.521Z,10.34
2023-03-21T00:42:29.635Z,10.32
2023-03-21T00:42:39.703Z,10.34
2023-03-21T00:42:49.793Z,10.32
2023-03-21T00:42:59.860Z,10.32
2023-03-21T00:43:09.931Z,10.32
2023-03-21T00:43:20.014Z,10.34
2023-03-21T00:43:30.122Z,10.32
2023-03-21T00:43:40.184Z,10.34
2023-03-21T00:43:50.292Z,10.35
2023-03-21T00:44:00.372Z,10.34
2023-03-21T00:44:10.479Z,10.34
2023-03-21T00:44:20.543Z,10.34
2023-03-21T00:44:30.623Z,10.34
2023-03-21T00:44:40.714Z,10.34
2023-03-21T00:44:50.783Z,10.34
2023-03-21T00:45:00.861Z,10.34
2023-03-21T00:45:10.929Z,10.34
2023-03-21T00:45:20.994Z,10.34
2023-03-21T00:45:31.108Z,10.34
2023-03-21T00:45:41.171Z,10.31
2023-03-21T00:45:51.244Z,10.32
2023-03-21T00:46:01.363Z,10.31
2023-03-21T00:46:11.449Z,10.31
2023-03-21T00:46:23.267Z,10.31
2023-03-21T00:46:43.690Z,10.31
2023-03-21T00:46:49.397Z,10.29
2023-03-21T00:47:06.199Z,10.28
2023-03-21T00:47:07.812Z,10.29
2023-03-21T00:47:14.668Z,10.29
2023-03-21T00:47:26.008Z,10.31
2023-03-21T00:47:34.838Z,10.31
2023-03-21T00:47:44.979Z,10.31
2023-03-21T00:47:55.109Z,10.29
2023-03-21T00:48:05.198Z,10.29
2023-03-21T00:48:15.196Z,10.31
2023-03-21T00:48:25.307Z,10.28
2023-03-21T00:48:35.306Z,10.29
2023-03-21T00:48:45.371Z,10.31
2023-03-21T00:48:55.475Z,10.31
2023-03-21T00:49:05.545Z,10.29
2023-03-21T00:49:15.631Z,10.28
2023-03-21T00:49:25.712Z,10.31
2023-03-21T00:49:35.821Z,10.29
2023-03-21T00:49:45.939Z,10.31
2023-03-21T00:49:55.981Z,10.29
2023-03-21T00:50:06.078Z,10.29
2023-03-21T00:50:16.062Z,10.29
2023-03-21T00:50:26.189Z,10.29
2023-03-21T00:50:36.121Z,10.29
2023-03-21T00:50:46.245Z,10.29
2023-03-21T00:50:56.343Z,10.28
2023-03-21T00:51:06.472Z,10.26
2023-03-21T00:51:16.571Z,10.26
2023-03-21T00:51:26.832Z,10.25
2023-03-21T00:51:36.702Z,10.24
2023-03-21T00:51:46.815Z,10.26
2023-03-21T00:51:59.561Z,10.22
2023-03-21T00:52:17.062Z,10.18
2023-03-21T00:52:27.531Z,10.18
2023-03-21T00:52:40.260Z,10.16
2023-03-21T00:52:41.456Z,10.16
2023-03-21T00:52:50.711Z,10.17
2023-03-21T00:53:00.772Z,10.17
2023-03-21T00:53:10.860Z,10.14
2023-03-21T00:53:20.972Z,10.16
2023-03-21T00:53:31.066Z,10.14
2023-03-21T00:53:41.177Z,10.16
2023-03-21T00:53:51.233Z,10.16
2023-03-21T00:54:01.356Z,10.13
2023-03-21T00:54:11.420Z,10.11
2023-03-21T00:54:21.617Z,10.11
2023-03-21T00:54:31.651Z,10.13
2023-03-21T00:54:41.756Z,10.13
2023-03-21T00:54:51.828Z,10.11
2023-03-21T00:55:01.929Z,10.13
2023-03-21T00:55:12.025Z,10.11
2023-03-21T00:55:22.112Z,10.10
2023-03-21T00:55:32.201Z,10.11
2023-03-21T00:55:42.304Z,10.10
2023-03-21T00:55:52.418Z,10.10
2023-03-21T00:56:02.500Z,10.07
2023-03-21T00:56:12.638Z,10.09
2023-03-21T00:56:22.708Z,10.07
2023-03-21T00:56:32.840Z,10.07
2023-03-21T00:56:42.822Z,10.07
2023-03-21T00:56:52.963Z,10.07
2023-03-21T00:57:03.052Z,10.07
2023-03-21T00:57:13.163Z,10.07
2023-03-21T00:57:37.491Z,10.06
2023-03-21T00:57:39.320Z,10.06
2023-03-21T00:57:47.477Z,10.04
2023-03-21T00:58:01.878Z,10.04
2023-03-21T00:58:07.145Z,10.02
2023-03-21T00:58:17.189Z,10.04
2023-03-21T00:58:27.307Z,10.04
2023-03-21T00:58:37.343Z,10.02
2023-03-21T00:58:47.443Z,10.04
2023-03-21T00:58:57.593Z,10.04
2023-03-21T00:59:07.690Z,10.02
2023-03-21T00:59:17.749Z,10.02
2023-03-21T00:59:27.825Z,10.02
2023-03-21T00:59:37.886Z,9.99
2023-03-21T00:59:47.951Z,9.96
2023-03-21T00:59:58.026Z,9.98
2023-03-21T01:00:08.102Z,9.95
2023-03-21T01:00:18.190Z,9.96
2023-03-21T01:00:28.305Z,9.95
2023-03-21T01:00:38.399Z,9.93
2023-03-21T01:00:48.469Z,9.92
2023-03-21T01:00:58.576Z,9.93
2023-03-21T01:01:08.705Z,9.93
2023-03-21T01:01:18.782Z,9.95
2023-03-21T01:01:28.899Z,9.92
2023-03-21T01:01:39.054Z,9.89
2023-03-21T01:01:49.005Z,9.93
2023-03-21T01:01:59.122Z,9.89
2023-03-21T01:02:09.115Z,9.91
2023-03-21T01:02:19.231Z,9.89
2023-03-21T01:02:29.152Z,9.89
2023-03-21T01:02:39.210Z,9.91
2023-03-21T01:02:51.879Z,9.89
2023-03-21T01:03:06.340Z,9.89
2023-03-21T01:03:23.302Z,9.89
2023-03-21T01:03:25.296Z,9.89
2023-03-21T01:03:32.280Z,9.89
2023-03-21T01:03:42.355Z,9.91
2023-03-21T01:03:52.459Z,9.91
2023-03-21T01:04:02.555Z,9.91
2023-03-21T01:04:12.631Z,9.91
2023-03-21T01:04:22.715Z,9.91
2023-03-21T01:04:32.761Z,9.91
2023-03-21T01:04:42.836Z,9.91
2023-03-21T01:04:52.879Z,9.92
2023-03-21T01:05:02.981Z,9.92
2023-03-21T01:05:13.031Z,9.92
2023-03-21T01:05:23.108Z,9.91
2023-03-21T01:05:33.163Z,9.91
2023-03-21T01:05:43.229Z,9.91
2023-03-21T01:05:53.284Z,9.92
2023-03-21T01:06:03.390Z,9.91
2023-03-21T01:06:13.461Z,9.91
2023-03-21T01:06:23.552Z,9.92
2023-03-21T01:06:33.610Z,9.92
2023-03-21T01:06:43.670Z,9.92
2023-03-21T01:06:53.796Z,9.95
2023-03-21T01:07:03.853Z,9.95
2023-03-21T01:07:13.910Z,9.95
2023-03-21T01:07:23.951Z,9.95
2023-03-21T01:07:34.021Z,9.95
2023-03-21T01:07:44.094Z,9.95
2023-03-21T01:07:54.139Z,9.93
2023-03-21T01:08:08.123Z,9.95
2023-03-21T01:08:26.595Z,9.95
2023-03-21T01:08:31.242Z,9.93
2023-03-21T01:08:52.564Z,9.93
2023-03-21T01:08:53.565Z,9.93
2023-03-21T01:08:59.037Z,9.95
2023-03-21T01:09:09.150Z,9.95
2023-03-21T01:09:19.217Z,9.95
2023-03-21T01:09:29.299Z,9.96
2023-03-21T01:09:39.352Z,9.93
2023-03-21T01:09:49.423Z,9.96
2023-03-21T01:09:59.465Z,9.95
2023-03-21T01:10:09.534Z,9.96
2023-03-21T01:10:19.576Z,9.95
2023-03-21T01:10:29.632Z,9.96
2023-03-21T01:10:39.796Z,9.95
2023-03-21T01:10:49.829Z,9.96
2023-03-21T01:10:59.901Z,9.96
2023-03-21T01:11:09.981Z,9.96
2023-03-21T01:11:20.051Z,9.96
2023-03-21T01:11:30.109Z,9.98
2023-03-21T01:11:40.178Z,9.98
2023-03-21T01:11:50.231Z,9.95
2023-03-21T01:12:00.357Z,9.95
2023-03-21T01:12:10.405Z,9.95
2023-03-21T01:12:20.499Z,9.98
2023-03-21T01:12:30.556Z,9.98
2023-03-21T01:12:40.660Z,9.98
2023-03-21T01:12:50.701Z,9.96
2023-03-21T01:13:00.802Z,9.98
2023-03-21T01:13:10.894Z,9.98
2023-03-21T01:13:20.951Z,10.01
2023-03-21T01:13:31.862Z,9.98
2023-03-21T01:13:53.027Z,9.98
2023-03-21T01:13:57.968Z,9.98
2023-03-21T01:14:21.254Z,9.96
2023-03-21T01:14:22.459Z,9.95
2023-03-21T01:14:25.150Z,9.96
2023-03-21T01:14:35.224Z,9.96
2023-03-21T01:14:45.275Z,9.96
2023-03-21T01:14:55.342Z,9.93
2023-03-21T01:15:05.428Z,9.95
2023-03-21T01:15:15.511Z,9.96
2023-03-21T01:15:25.572Z,9.95
2023-03-21T01:15:35.892Z,9.93
2023-03-21T01:15:45.784Z,9.93
2023-03-21T01:15:55.888Z,9.93
2023-03-21T01:16:05.899Z,9.92
2023-03-21T01:16:16.025Z,9.92
2023-03-21T01:16:25.975Z,9.95
2023-03-21T01:16:36.095Z,9.92
2023-03-21T01:16:46.160Z,9.93
2023-03-21T01:16:56.240Z,9.92
2023-03-21T01:17:06.299Z,9.95
2023-03-21T01:17:16.402Z,9.93
2023-03-21T01:17:26.448Z,9.95
2023-03-21T01:17:36.548Z,9.92
2023-03-21T01:17:46.606Z,9.92
2023-03-21T01:17:56.698Z,9.92
2023-03-21T01:18:06.766Z,9.93
2023-03-21T01:18:16.829Z,9.92
2023-03-21T01:18:26.888Z,9.92
2023-03-21T01:18:36.978Z,9.92
2023-03-21T01:18:47.029Z,9.92
2023-03-21T01:18:57.112Z,9.92
2023-03-21T01:19:14.785Z,9.91
2023-03-21T01:19:25.623Z,9.91
2023-03-21T01:19:44.339Z,9.91
2023-03-21T01:19:51.225Z,9.89
2023-03-21T01:19:52.406Z,9.89
2023-03-21T01:20:01.049Z,9.91
2023-03-21T01:20:11.108Z,9.92
2023-03-21T01:20:21.208Z,9.91
2023-03-21T01:20:31.267Z,9.92
2023-03-21T01:20:41.358Z,9.92
2023-03-21T01:20:51.419Z,9.91
2023-03-21T01:21:01.519Z,9.91
2023-03-21T01:21:11.549Z,9.92
2023-03-21T01:21:21.614Z,9.89
2023-03-21T01:21:31.672Z,9.91
2023-03-21T01:21:41.744Z,9.91
2023-03-21T01:21:51.811Z,9.91
2023-03-21T01:22:01.869Z,9.91
2023-03-21T01:22:11.958Z,9.88
2023-03-21T01:22:22.028Z,9.89
2023-03-21T01:22:32.110Z,9.89
2023-03-21T01:22:42.155Z,9.88
2023-03-21T01:22:52.237Z,9.89
2023-03-21T01:23:02.301Z,9.89
2023-03-21T01:23:12.359Z,9.88
2023-03-21T01:23:22.443Z,9.89
2023-03-21T01:23:32.508Z,9.88
2023-03-21T01:23:42.559Z,9.89
2023-03-21T01:23:52.656Z,9.88
2023-03-21T01:24:02.717Z,9.88
2023-03-21T01:24:12.800Z,9.88
2023-03-21T01:24:22.867Z,9.86
2023-03-21T01:24:35.606Z,9.88
2023-03-21T01:24:52.344Z,9.85
2023-03-21T01:25:00.531Z,9.86
2023-03-21T01:25:21.233Z,9.85
2023-03-21T01:25:22.279Z,9.85
2023-03-21T01:25:26.929Z,9.85
2023-03-21T01:25:37.287Z,9.85
2023-03-21T01:25:47.130Z,9.86
2023-03-21T01:25:57.187Z,9.86
2023-03-21T01:26:07.250Z,9.86
2023-03-21T01:26:17.301Z,9.86
2023-03-21T01:26:27.374Z,9.86
2023-03-21T01:26:37.423Z,9.88
2023-03-21T01:26:47.431Z,9.86
2023-03-21T01:26:57.477Z,9.86
2023-03-21T01:27:07.556Z,9.86
2023-03-21T01:27:17.617Z,9.86
2023-03-21T01:27:27.720Z,9.88
2023-03-21T01:27:37.787Z,9.89
2023-03-21T01:27:47.857Z,9.88
2023-03-21T01:27:57.928Z,9.91
2023-03-21T01:28:07.988Z,9.88
2023-03-21T01:28:18.043Z,9.88
2023-03-21T01:28:28.149Z,9.88
2023-03-21T01:28:38.198Z,9.89
2023-03-21T01:28:48.278Z,9.91
2023-03-21T01:28:58.352Z,9.89
2023-03-21T01:29:08.400Z,9.91
2023-03-21T01:29:18.500Z,9.91
2023-03-21T01:29:28.557Z,9.89
2023-03-21T01:29:38.655Z,9.89
2023-03-21T01:29:48.717Z,9.89
2023-03-21T01:29:59.824Z,9.91
2023-03-21T01:30:19.152Z,9.91
2023-03-21T01:30:23.913Z,9.89
2023-03-21T01:30:33.984Z,9.91
2023-03-21T01:30:42.110Z,9.91
2023-03-21T01:30:50.897Z,9.92
2023-03-21T01:31:00.988Z,9.91
2023-03-21T01:31:11.044Z,9.93
2023-03-21T01:31:21.153Z,9.93
2023-03-21T01:31:31.273Z,9.92
2023-03-21T01:31:41.412Z,9.92
2023-03-21T01:31:51.523Z,9.93
2023-03-21T01:32:01.610Z,9.93
2023-03-21T01:32:11.698Z,9.93
2023-03-21T01:32:21.759Z,9.93
2023-03-21T01:32:31.836Z,9.95
2023-03-21T01:32:41.896Z,9.95
2023-03-21T01:32:51.987Z,9.93
2023-03-21T01:33:02.137Z,9.95
2023-03-21T01:33:12.206Z,9.95
2023-03-21T01:33:22.265Z,9.95
2023-03-21T01:33:32.321Z,9.95
2023-03-21T01:33:42.335Z,9.96
2023-03-21T01:33:52.391Z,9.95
2023-03-21T01:34:02.415Z,9.95
2023-03-21T01:34:12.534Z,9.95
2023-03-21T01:34:22.595Z,9.96
2023-03-21T01:34:32.624Z,9.93
2023-03-21T01:34:42.685Z,9.93
2023-03-21T01:34:52.705Z,9.95
2023-03-21T01:35:02.759Z,9.93
2023-03-21T01:35:12.776Z,9.95
2023-03-21T01:35:22.868Z,9.93
2023-03-21T01:35:41.016Z,9.95
2023-03-21T01:35:50.425Z,9.93
2023-03-21T01:36:03.302Z,9.93
2023-03-21T01:36:12.765Z,9.93
2023-03-21T01:36:17.184Z,9.93
2023-03-21T01:36:26.866Z,9.95
2023-03-21T01:36:36.915Z,9.95
2023-03-21T01:36:47.048Z,9.92
2023-03-21T01:36:57.157Z,9.93
2023-03-21T01:37:07.206Z,9.93
2023-03-21T01:37:17.223Z,9.92
2023-03-21T01:37:27.280Z,9.95
2023-03-21T01:37:37.315Z,9.93
2023-03-21T01:37:47.366Z,9.93
2023-03-21T01:37:57.397Z,9.93
2023-03-21T01:38:07.426Z,9.92
2023-03-21T01:38:17.457Z,9.91
2023-03-21T01:38:27.525Z,9.92
2023-03-21T01:38:37.589Z,9.93
2023-03-21T01:38:47.667Z,9.92
2023-03-21T01:38:57.715Z,9.93
2023-03-21T01:39:07.769Z,9.91
2023-03-21T01:39:17.865Z,9.92
2023-03-21T01:39:27.975Z,9.89
2023-03-21T01:39:38.072Z,9.93
2023-03-21T01:39:48.117Z,9.91
2023-03-21T01:39:58.194Z,9.93
2023-03-21T01:40:08.253Z,9.89
2023-03-21T01:40:18.295Z,9.91
2023-03-21T01:40:28.353Z,9.91
2023-03-21T01:40:38.363Z,9.92
2023-03-21T01:40:48.454Z,9.93
2023-03-21T01:40:59.396Z,9.92
2023-03-21T01:41:18.875Z,9.93
2023-03-21T01:41:20.363Z,9.93
2023-03-21T01:41:42.025Z,9.92
2023-03-21T01:41:43.513Z,9.92
2023-03-21T01:41:50.949Z,9.92
2023-03-21T01:42:01.000Z,9.93
2023-03-21T01:42:11.084Z,9.92
2023-03-21T01:42:21.128Z,9.93
2023-03-21T01:42:31.290Z,9.93
2023-03-21T01:42:41.347Z,9.93
2023-03-21T01:42:51.470Z,9.93
2023-03-21T01:43:01.525Z,9.95
2023-03-21T01:43:11.585Z,9.93
2023-03-21T01:43:21.637Z,9.93
2023-03-21T01:43:31.712Z,9.95
2023-03-21T01:43:41.758Z,9.93
2023-03-21T01:43:51.822Z,9.93
2023-03-21T01:44:01.900Z,9.92
2023-03-21T01:44:11.966Z,9.92
2023-03-21T01:44:22.047Z,9.92
2023-03-21T01:44:32.131Z,9.91
2023-03-21T01:44:42.183Z,9.93
2023-03-21T01:44:52.241Z,9.92
2023-03-21T01:45:02.312Z,9.92
2023-03-21T01:45:12.376Z,9.92
2023-03-21T01:45:22.446Z,9.93
2023-03-21T01:45:32.439Z,9.93
2023-03-21T01:45:42.529Z,9.91
2023-03-21T01:45:52.593Z,9.91
2023-03-21T01:46:02.670Z,9.89
2023-03-21T01:46:12.773Z,9.88
2023-03-21T01:46:22.903Z,9.86
2023-03-21T01:46:46.202Z,9.83
2023-03-21T01:46:53.999Z,9.81
2023-03-21T01:47:09.971Z,9.80
2023-03-21T01:47:13.071Z,9.78
2023-03-21T01:47:16.647Z,9.75
2023-03-21T01:47:26.718Z,9.75
2023-03-21T01:47:36.774Z,9.77
2023-03-21T01:47:46.866Z,9.75
2023-03-21T01:47:56.971Z,9.74
2023-03-21T01:48:07.016Z,9.73
2023-03-21T01:48:17.180Z,9.73
2023-03-21T01:48:27.103Z,9.70
2023-03-21T01:48:37.156Z,9.70
2023-03-21T01:48:47.226Z,9.68
2023-03-21T01:48:57.279Z,9.70
2023-03-21T01:49:07.343Z,9.67
2023-03-21T01:49:17.400Z,9.67
2023-03-21T01:49:27.468Z,9.67
2023-03-21T01:49:37.569Z,9.68
2023-03-21T01:49:47.646Z,9.67
2023-03-21T01:49:57.754Z,9.67
2023-03-21T01:50:07.786Z,9.65
2023-03-21T01:50:17.890Z,9.67
2023-03-21T01:50:27.928Z,9.65
2023-03-21T01:50:37.997Z,9.65
2023-03-21T01:50:48.023Z,9.67
2023-03-21T01:50:58.089Z,9.67
2023-03-21T01:51:08.132Z,9.67
2023-03-21T01:51:18.198Z,9.65
2023-03-21T01:51:28.229Z,9.65
2023-03-21T01:51:38.303Z,9.65
2023-03-21T01:51:48.356Z,9.63
2023-03-21T01:52:01.070Z,9.65
2023-03-21T01:52:15.201Z,9.63
2023-03-21T01:52:35.508Z,9.63
2023-03-21T01:52:37.409Z,9.63
2023-03-21T01:52:42.283Z,9.63
2023-03-21T01:52:52.325Z,9.65
2023-03-21T01:53:02.404Z,9.65
2023-03-21T01:53:12.441Z,9.67
2023-03-21T01:53:22.517Z,9.68
2023-03-21T01:53:32.543Z,9.65
2023-03-21T01:53:42.612Z,9.68
2023-03-21T01:53:52.679Z,9.68
2023-03-21T01:54:02.755Z,9.67
2023-03-21T01:54:12.797Z,9.68
2023-03-21T01:54:22.865Z,9.68
2023-03-21T01:54:32.965Z,9.67
2023-03-21T01:54:43.026Z,9.65
2023-03-21T01:54:53.145Z,9.63
2023-03-21T01:55:03.202Z,9.63
2023-03-21T01:55:13.283Z,9.65
2023-03-21T01:55:23.313Z,9.65
2023-03-21T01:55:33.396Z,9.63
2023-03-21T01:55:43.439Z,9.62
2023-03-21T01:55:53.513Z,9.62
2023-03-21T01:56:03.553Z,9.60
2023-03-21T01:56:13.625Z,9.59
2023-03-21T01:56:23.675Z,9.60
2023-03-21T01:56:33.767Z,9.58
2023-03-21T01:56:43.845Z,9.56
2023-03-21T01:56:53.884Z,9.56
2023-03-21T01:57:03.965Z,9.53
2023-03-21T01:57:14.001Z,9.55
2023-03-21T01:57:27.675Z,9.52
2023-03-21T01:57:42.425Z,9.50
2023-03-21T01:58:02.069Z,9.49
2023-03-21T01:58:06.010Z,9.48
2023-03-21T01:58:07.901Z,9.49
2023-03-21T01:58:17.957Z,9.50
2023-03-21T01:58:28.013Z,9.49
2023-03-21T01:58:38.075Z,9.50
2023-03-21T01:58:48.113Z,9.50
2023-03-21T01:58:58.198Z,9.49
2023-03-21T01:59:08.234Z,9.50
2023-03-21T01:59:18.324Z,9.49
2023-03-21T01:59:28.386Z,9.50
2023-03-21T01:59:38.433Z,9.48
2023-03-21T01:59:48.495Z,9.49
2023-03-21T01:59:58.540Z,9.49
2023-03-21T02:00:08.593Z,9.49
2023-03-21T02:00:18.684Z,9.48
2023-03-21T02:00:28.752Z,9.48
2023-03-21T02:00:38.965Z,9.49
2023-03-21T02:00:48.927Z,9.45
2023-03-21T02:00:58.873Z,9.50
2023-03-21T02:01:09.053Z,9.49
2023-03-21T02:01:19.032Z,9.49
2023-03-21T02:01:29.129Z,9.48
2023-03-21T02:01:39.171Z,9.49
2023-03-21T02:01:49.217Z,9.50
2023-03-21T02:01:59.282Z,9.48
2023-03-21T02:02:09.335Z,9.50
2023-03-21T02:02:19.405Z,9.50
2023-03-21T02:02:29.473Z,9.50
2023-03-21T02:02:39.554Z,9.52
2023-03-21T02:02:49.749Z,9.52
2023-03-21T02:03:11.361Z,9.50
2023-03-21T02:03:18.888Z,9.50
2023-03-21T02:03:33.529Z,9.48
2023-03-21T02:03:36.022Z,9.50
2023-03-21T02:03:42.730Z,9.49
2023-03-21T02:03:52.822Z,9.50
2023-03-21T02:04:02.973Z,9.55
2023-03-21T02:04:13.060Z,9.52
2023-03-21T02:04:23.191Z,9.53
2023-03-21T02:04:33.227Z,9.53
2023-03-21T02:04:43.313Z,9.53
2023-03-21T02:04:53.364Z,9.52
2023-03-21T02:05:03.431Z,9.55
2023-03-21T02:05:13.489Z,9.55
2023-03-21T02:05:23.551Z,9.56
2023-03-21T02:05:33.668Z,9.55
2023-03-21T02:05:43.759Z,9.56
2023-03-21T02:05:53.849Z,9.56
2023-03-21T02:06:03.894Z,9.58
2023-03-21T02:06:13.957Z,9.56
2023-03-21T02:06:24.016Z,9.58
2023-03-21T02:06:34.059Z,9.58
2023-03-21T02:06:44.179Z,9.59
2023-03-21T02:06:54.233Z,9.59
2023-03-21T02:07:04.313Z,9.60
2023-03-21T02:07:14.364Z,9.56
2023-03-21T02:07:24.433Z,9.58
2023-03-21T02:07:34.485Z,9.58
2023-03-21T02:07:44.589Z,9.59
2023-03-21T02:07:54.631Z,9.58
2023-03-21T02:08:04.704Z,9.59
2023-03-21T02:08:14.762Z,9.56
2023-03-21T02:08:36.774Z,9.55
2023-03-21T02:08:39.555Z,9.56
2023-03-21T02:08:45.813Z,9.53
2023-03-21T02:08:55.907Z,9.55
2023-03-21T02:09:05.962Z,9.53
2023-03-21T02:09:16.044Z,9.52
2023-03-21T02:09:26.093Z,9.53
2023-03-21T02:09:36.183Z,9.50
2023-03-21T02:09:46.261Z,9.50
2023-03-21T02:09:56.324Z,9.50
2023-03-21T02:10:06.392Z,9.49
2023-03-21T02:10:16.472Z,9.50
2023-03-21T02:10:26.506Z,9.49
2023-03-21T02:10:36.566Z,9.50
2023-03-21T02:10:46.866Z,9.48
2023-03-21T02:10:56.806Z,9.49
2023-03-21T02:11:06.850Z,9.45
2023-03-21T02:11:16.928Z,9.48
2023-03-21T02:11:26.975Z,9.49
2023-03-21T02:11:37.063Z,9.48
2023-03-21T02:11:47.183Z,9.48
2023-03-21T02:11:57.234Z,9.49
2023-03-21T02:12:07.305Z,9.49
2023-03-21T02:12:17.384Z,9.49
2023-03-21T02:12:27.433Z,9.49
2023-03-21T02:12:37.507Z,9.48
2023-03-21T02:12:47.577Z,9.49
2023-03-21T02:12:57.636Z,9.48
2023-03-21T02:13:07.682Z,9.48
2023-03-21T02:13:17.760Z,9.48
2023-03-21T02:13:27.799Z,9.48
2023-03-21T02:13:37.860Z,9.48
2023-03-21T02:13:50.190Z,9.48
2023-03-21T02:14:06.125Z,9.45
2023-03-21T02:14:10.082Z,9.48
2023-03-21T02:14:28.250Z,9.45